Time;durP1;ratioP1;P1;durP2;ratioP2;P2;SDS_P1;SDS_P2;PMS_P1;PMS_P2;Temp;Humidity;BMP_temperature;BMP_pressure;BME280_temperature;BME280_humidity;BME280_pressure;Samples;Min_cycle;Max_cycle;Signal;HPM_P1;HPM_P2
2023/05/04 00:00:47;;;;;;;11.23;7.17;;;;;;;-143.84;93.00;43832.53;5109352;28;20436;-59
2023/05/04 00:03:14;;;;;;;8.87;6.20;;;;;;;-143.84;92.89;43823.00;5109362;28;20428;-59
2023/05/04 00:05:41;;;;;;;12.83;7.50;;;;;;;-143.84;93.01;43855.38;5109240;28;20552;-59
2023/05/04 00:08:08;;;;;;;13.67;7.77;;;;;;;-143.84;93.10;43857.28;5109085;28;20440;-59
2023/05/04 00:10:35;;;;;;;10.53;7.07;;;;;;;-143.84;93.25;43862.97;5109149;28;20465;-59
2023/05/04 00:13:03;;;;;;;10.23;7.10;;;;;;;-143.84;93.83;43859.19;5109027;28;20447;-59
2023/05/04 00:15:30;;;;;;;11.13;6.73;;;;;;;-143.84;93.98;43861.06;5109428;28;21003;-59
2023/05/04 00:17:58;;;;;;;15.60;7.47;;;;;;;-143.84;94.40;43893.44;5109402;28;20492;-59
2023/05/04 00:20:25;;;;;;;17.20;7.07;;;;;;;-143.84;94.17;43904.84;5108593;28;20447;-59
2023/05/04 00:22:52;;;;;;;10.20;6.90;;;;;;;-143.84;94.50;43906.75;5109027;28;20443;-59
2023/05/04 00:25:19;;;;;;;13.60;7.10;;;;;;;-143.84;94.56;43899.16;5109124;28;20511;-59
2023/05/04 00:27:46;;;;;;;11.40;8.37;;;;;;;-143.84;94.54;43910.56;5108940;28;20447;-59
2023/05/04 00:30:15;;;;;;;10.60;7.40;;;;;;;-143.84;94.61;43891.53;5108908;28;20435;-59
2023/05/04 00:32:42;;;;;;;14.83;7.43;;;;;;;-143.84;94.33;43895.34;5109008;28;20440;-59
2023/05/04 00:35:09;;;;;;;22.57;8.20;;;;;;;-143.84;94.00;43899.16;5108999;28;20496;-59
2023/05/04 00:37:37;;;;;;;11.30;8.83;;;;;;;-143.84;94.50;43910.56;5108844;28;20452;-59
2023/05/04 00:40:04;;;;;;;15.50;7.40;;;;;;;-143.84;94.48;43889.63;5109114;28;20831;-59
2023/05/04 00:42:31;;;;;;;15.90;7.67;;;;;;;-143.84;94.05;43899.16;5112697;28;20455;-59
2023/05/04 00:44:58;;;;;;;9.60;6.97;;;;;;;-143.84;94.44;43901.06;5112759;28;20483;-59
2023/05/04 00:47:28;;;;;;;11.87;7.60;;;;;;;-143.84;94.31;43902.97;5112703;28;20468;-58
2023/05/04 00:49:55;;;;;;;12.80;7.17;;;;;;;-143.84;94.35;43893.44;5112758;28;20452;-59
2023/05/04 00:52:24;;;;;;;12.30;7.23;;;;;;;-143.84;94.34;43880.13;5113018;28;20432;-59
2023/05/04 00:54:53;;;;;;;11.50;8.10;;;;;;;-143.84;93.57;43868.69;5112513;28;20504;-59
2023/05/04 00:57:20;;;;;;;11.50;7.80;;;;;;;-143.84;93.49;43882.00;5112660;28;20493;-59
2023/05/04 00:59:47;;;;;;;10.70;7.60;;;;;;;-143.84;93.34;43864.88;5112557;28;20443;-59
2023/05/04 01:02:14;;;;;;;14.17;8.33;;;;;;;-143.84;93.09;43851.56;5112271;28;20445;-59
2023/05/04 01:04:44;;;;;;;12.73;7.60;;;;;;;-143.84;93.34;43842.03;5111345;28;20472;-59
2023/05/04 01:07:20;;;;;;;10.60;7.10;;;;;;;-143.84;92.93;43843.94;5111428;28;20435;-60
2023/05/04 01:09:54;;;;;;;13.30;7.77;;;;;;;-143.84;92.76;43851.56;5111873;28;20443;-59
2023/05/04 01:12:26;;;;;;;9.87;7.30;;;;;;;-143.84;92.46;43843.94;5111437;28;20441;-59
2023/05/04 01:14:54;;;;;;;12.53;7.80;;;;;;;-143.84;92.09;43813.50;5111552;28;20467;-59
2023/05/04 01:17:21;;;;;;;13.57;7.30;;;;;;;-143.84;91.80;43813.50;5111971;28;21170;-59
2023/05/04 01:19:52;;;;;;;10.00;7.40;;;;;;;-143.84;91.91;43788.75;5112566;27;20476;-59
2023/05/04 01:22:21;;;;;;;10.00;6.73;;;;;;;-143.84;92.15;43826.81;5132590;27;20574;-59
2023/05/04 01:24:49;;;;;;;12.10;7.67;;;;;;;-143.84;91.97;43819.19;5132639;27;20443;-60
2023/05/04 01:27:24;;;;;;;15.20;7.30;;;;;;;-143.84;91.83;43800.16;5132339;27;20721;-59
2023/05/04 01:29:58;;;;;;;10.40;7.80;;;;;;;-143.84;91.77;43832.53;5132766;27;20438;-59
2023/05/04 01:32:28;;;;;;;17.70;7.30;;;;;;;-143.84;92.16;43798.25;5132682;27;20441;-59
2023/05/04 01:34:55;;;;;;;8.93;7.20;;;;;;;-143.84;92.09;43817.31;5132343;27;20491;-59
2023/05/04 01:37:24;;;;;;;10.43;7.00;;;;;;;-143.84;92.22;43813.50;5132480;27;20933;-59
2023/05/04 01:39:51;;;;;;;10.67;7.07;;;;;;;-143.84;92.40;43834.44;5132344;27;20518;-59
2023/05/04 01:42:18;;;;;;;12.37;7.90;;;;;;;-143.84;92.34;43845.84;5132592;27;21014;-59
2023/05/04 01:44:45;;;;;;;8.43;7.37;;;;;;;-143.84;92.37;43828.72;5132320;27;20843;-59
2023/05/04 01:47:12;;;;;;;14.77;8.17;;;;;;;-143.84;92.29;43838.25;5132125;27;20430;-59
2023/05/04 01:49:39;;;;;;;14.33;7.60;;;;;;;-143.84;92.48;43828.72;5115740;27;20451;-59
2023/05/04 01:52:06;;;;;;;11.50;7.80;;;;;;;-143.84;92.40;43807.78;5111178;28;20504;-59
2023/05/04 01:54:35;;;;;;;22.17;7.27;;;;;;;-143.84;92.64;43855.38;5111317;28;20432;-59
2023/05/04 01:57:02;;;;;;;9.27;6.43;;;;;;;-143.84;92.17;43815.41;5111448;28;20512;-59
2023/05/04 01:59:30;;;;;;;10.33;6.90;;;;;;;-143.84;91.71;43813.50;5111488;28;20447;-59
2023/05/04 02:01:57;;;;;;;17.83;7.27;;;;;;;-143.84;91.69;43813.50;5111461;28;20439;-59
2023/05/04 02:04:24;;;;;;;11.20;6.93;;;;;;;-143.84;91.95;43779.22;5111468;28;20489;-59
2023/05/04 02:06:51;;;;;;;9.03;7.10;;;;;;;-143.84;92.09;43794.47;5110963;28;20528;-59
2023/05/04 02:09:18;;;;;;;13.93;6.63;;;;;;;-143.84;91.97;43786.84;5111204;28;20444;-59
2023/05/04 02:11:47;;;;;;;8.10;6.33;;;;;;;-143.84;91.72;43792.56;5111617;28;20492;-59
2023/05/04 02:14:14;;;;;;;15.40;7.90;;;;;;;-143.84;92.23;43811.59;5124545;27;20472;-59
2023/05/04 02:16:41;;;;;;;14.27;6.93;;;;;;;-143.84;92.07;43811.59;5131611;27;20468;-59
2023/05/04 02:19:08;;;;;;;15.33;6.33;;;;;;;-143.84;92.18;43823.00;5131583;27;20495;-60
2023/05/04 02:21:35;;;;;;;13.37;6.87;;;;;;;-143.84;92.21;43828.72;5118957;27;20479;-59
2023/05/04 02:24:05;;;;;;;9.40;6.23;;;;;;;-143.84;92.58;43826.81;5110959;28;20443;-59
2023/05/04 02:26:32;;;;;;;13.73;6.60;;;;;;;-143.84;92.11;43811.59;5111041;28;20514;-59
2023/05/04 02:29:02;;;;;;;10.27;7.20;;;;;;;-143.84;92.24;43802.06;5111050;28;20843;-59
2023/05/04 02:31:29;;;;;;;10.50;6.77;;;;;;;-143.84;92.52;43830.63;5110951;28;20443;-59
2023/05/04 02:33:56;;;;;;;17.40;7.30;;;;;;;-143.84;92.12;43817.31;5110698;28;20443;-59
2023/05/04 02:36:23;;;;;;;10.40;6.47;;;;;;;-143.84;92.15;43809.69;5110552;28;20496;-59
2023/05/04 02:38:50;;;;;;;9.07;6.90;;;;;;;-143.84;92.25;43838.25;5110651;28;20452;-59
2023/05/04 02:41:17;;;;;;;19.73;7.10;;;;;;;-143.84;92.13;43805.88;5110794;28;20522;-59
2023/05/04 02:43:45;;;;;;;7.80;6.30;;;;;;;-143.84;91.60;43798.25;5110777;28;20435;-59
2023/05/04 02:46:14;;;;;;;8.00;6.50;;;;;;;-143.84;92.02;43813.50;5110484;27;20540;-59
2023/05/04 02:48:41;;;;;;;13.27;5.90;;;;;;;-143.84;92.14;43826.81;5110444;28;20439;-59
2023/05/04 02:51:08;;;;;;;14.07;7.13;;;;;;;-143.84;91.80;43819.19;5110443;28;20438;-59
2023/05/04 02:53:35;;;;;;;12.87;8.50;;;;;;;-143.84;92.05;43790.66;5110453;28;20509;-59
2023/05/04 02:56:03;;;;;;;13.43;7.10;;;;;;;-143.84;92.38;43828.72;5110287;28;20435;-59
2023/05/04 02:58:30;;;;;;;9.90;6.50;;;;;;;-143.84;92.56;43832.53;5110275;28;20438;-59
2023/05/04 03:00:57;;;;;;;12.27;7.93;;;;;;;-143.84;92.66;43834.44;5110266;28;20436;-59
2023/05/04 03:03:26;;;;;;;15.07;8.43;;;;;;;-143.84;92.76;43826.81;5109572;28;20882;-59
2023/05/04 03:05:53;;;;;;;10.47;7.47;;;;;;;-143.84;92.44;43807.78;5110030;28;20901;-59
2023/05/04 03:08:20;;;;;;;15.97;8.20;;;;;;;-143.84;92.02;43817.31;5110348;28;20431;-59
2023/05/04 03:10:47;;;;;;;12.83;7.90;;;;;;;-143.84;91.85;43794.47;5110201;28;20560;-59
2023/05/04 03:13:15;;;;;;;22.43;8.10;;;;;;;-143.84;91.89;43802.06;5121837;27;20508;-58
2023/05/04 03:15:42;;;;;;;13.67;8.07;;;;;;;-143.84;92.02;43821.09;5130438;27;20523;-59
2023/05/04 03:18:09;;;;;;;16.63;6.93;;;;;;;-143.84;91.99;43798.25;5113051;27;20510;-60
2023/05/04 03:20:37;;;;;;;17.97;7.97;;;;;;;-143.84;91.83;43807.78;5089495;28;20472;-59
2023/05/04 03:23:05;;;;;;;12.10;7.30;;;;;;;-143.84;91.82;43784.94;5089488;28;20452;-59
2023/05/04 03:25:32;;;;;;;16.93;7.50;;;;;;;-143.84;91.66;43783.03;5089400;28;21046;-59
2023/05/04 03:27:59;;;;;;;12.73;7.37;;;;;;;-143.84;91.89;43788.75;5089230;28;20440;-60
2023/05/04 03:30:26;;;;;;;9.80;6.73;;;;;;;-143.84;91.61;43783.03;5089316;28;20444;-61
2023/05/04 03:32:54;;;;;;;9.63;6.90;;;;;;;-143.84;91.74;43775.41;5089253;28;20434;-61
2023/05/04 03:35:21;;;;;;;12.13;7.00;;;;;;;-143.84;91.69;43790.66;5089333;28;20466;-60
2023/05/04 03:37:49;;;;;;;18.33;7.97;;;;;;;-143.84;91.21;43788.75;5089238;28;20440;-60
2023/05/04 03:40:21;;;;;;;12.33;6.30;;;;;;;-143.84;91.29;43781.13;5089075;28;20470;-60
2023/05/04 03:42:48;;;;;;;10.20;6.97;;;;;;;-143.84;91.46;43773.53;5089369;28;20452;-61
2023/05/04 03:45:15;;;;;;;10.40;6.70;;;;;;;-143.84;91.21;43781.13;5089211;28;20448;-60
2023/05/04 03:47:42;;;;;;;11.87;6.90;;;;;;;-143.84;91.14;43760.19;5089242;28;20548;-60
2023/05/04 03:50:10;;;;;;;11.17;7.90;;;;;;;-143.84;91.19;43775.41;5100921;28;20512;-62
2023/05/04 03:52:37;;;;;;;14.07;8.07;;;;;;;-143.84;91.54;43817.31;5109461;28;20460;-61
2023/05/04 03:55:07;;;;;;;11.90;8.40;;;;;;;-143.84;91.60;43803.97;5109507;28;20435;-61
2023/05/04 03:57:34;;;;;;;11.73;7.10;;;;;;;-143.84;92.00;43798.25;5109460;28;20436;-61
2023/05/04 04:00:01;;;;;;;12.70;7.43;;;;;;;-143.84;91.51;43783.03;5109548;28;20497;-61
2023/05/04 04:02:28;;;;;;;13.23;6.93;;;;;;;-143.84;91.42;43807.78;5109227;28;20504;-61
2023/05/04 04:04:55;;;;;;;21.93;8.73;;;;;;;-143.84;92.17;43826.81;5109430;28;20435;-61
2023/05/04 04:07:22;;;;;;;12.73;7.53;;;;;;;-143.84;92.13;43813.50;5109398;28;20463;-61
2023/05/04 04:09:51;;;;;;;17.73;8.60;;;;;;;-143.84;91.74;43838.25;5109357;28;20431;-61
2023/05/04 04:12:19;;;;;;;13.60;9.03;;;;;;;-143.84;92.10;43817.31;5109600;28;20540;-61
2023/05/04 04:14:47;;;;;;;14.50;7.90;;;;;;;-143.84;92.04;43788.75;5109177;28;20474;-61
2023/05/04 04:17:14;;;;;;;11.77;7.87;;;;;;;-143.84;91.94;43828.72;5112727;28;20465;-60
2023/05/04 04:19:41;;;;;;;13.97;7.80;;;;;;;-143.84;91.92;43807.78;5113446;28;20443;-61
2023/05/04 04:22:08;;;;;;;17.17;8.10;;;;;;;-143.84;91.97;43802.06;5113225;28;20506;-61
2023/05/04 04:24:36;;;;;;;14.97;7.80;;;;;;;-143.84;92.15;43815.41;5113335;28;20481;-60
2023/05/04 04:27:03;;;;;;;9.60;7.60;;;;;;;-143.84;91.72;43800.16;5113155;28;20482;-61
2023/05/04 04:29:34;;;;;;;10.63;7.77;;;;;;;-143.84;91.49;43792.56;5113385;28;20424;-60
2023/05/04 04:32:01;;;;;;;11.47;7.30;;;;;;;-143.84;91.46;43781.13;5113151;28;20946;-61
2023/05/04 04:34:28;;;;;;;11.43;7.47;;;;;;;-143.84;91.69;43779.22;5113156;28;20984;-61
2023/05/04 04:36:55;;;;;;;12.63;7.70;;;;;;;-143.84;91.42;43777.31;5112658;28;20447;-60
2023/05/04 04:39:22;;;;;;;13.83;7.37;;;;;;;-143.84;91.46;43758.28;5113172;28;20431;-57
2023/05/04 04:41:49;;;;;;;16.30;7.47;;;;;;;-143.84;91.21;43784.94;5113145;28;20500;-58
2023/05/04 04:44:16;;;;;;;21.70;8.30;;;;;;;-143.84;91.12;43756.38;5112923;28;20441;-58
2023/05/04 04:46:46;;;;;;;15.40;8.23;;;;;;;-143.84;90.93;43777.31;5112612;28;20811;-58
2023/05/04 04:49:13;;;;;;;18.47;8.00;;;;;;;-143.84;90.69;43769.72;5112730;28;20502;-58
2023/05/04 04:51:41;;;;;;;14.50;7.80;;;;;;;-143.84;91.02;43746.88;5111633;28;20513;-58
2023/05/04 04:54:08;;;;;;;18.60;7.90;;;;;;;-143.84;90.77;43765.91;5112910;28;20814;-58
2023/05/04 04:56:35;;;;;;;14.60;8.97;;;;;;;-143.84;91.34;43769.72;5112496;28;20447;-57
2023/05/04 04:59:02;;;;;;;16.83;8.73;;;;;;;-143.84;91.10;43773.53;5112778;28;20434;-58
2023/05/04 05:01:30;;;;;;;14.30;8.60;;;;;;;-143.84;91.14;43790.66;5112340;28;20435;-57
2023/05/04 05:03:58;;;;;;;11.23;8.70;;;;;;;-143.84;91.42;43796.34;5112432;28;20478;-58
2023/05/04 05:06:25;;;;;;;15.07;9.10;;;;;;;-143.84;91.61;43794.47;5112817;28;20463;-58
2023/05/04 05:08:52;;;;;;;13.73;8.40;;;;;;;-143.84;91.52;43790.66;5112499;28;20515;-58
2023/05/04 05:11:19;;;;;;;9.80;8.10;;;;;;;-143.84;91.48;43781.13;5112575;28;20488;-58
2023/05/04 05:13:47;;;;;;;20.77;9.70;;;;;;;-143.84;90.95;43775.41;5112375;28;20795;-58
2023/05/04 05:16:14;;;;;;;13.63;9.37;;;;;;;-143.84;90.65;43765.91;5112212;28;20428;-58
2023/05/04 05:18:41;;;;;;;17.37;8.37;;;;;;;-143.84;90.32;43750.69;5112099;28;20443;-58
2023/05/04 05:21:10;;;;;;;15.27;8.53;;;;;;;-143.84;90.31;43767.81;5112204;28;20484;-58
2023/05/04 05:23:38;;;;;;;11.90;7.90;;;;;;;-143.84;90.06;43769.72;5112109;28;20468;-58
2023/05/04 05:26:05;;;;;;;11.53;6.90;;;;;;;-143.84;89.16;43794.47;5111273;28;20452;-58
2023/05/04 05:28:32;;;;;;;12.73;7.17;;;;;;;-143.84;88.62;43862.97;5112045;28;20444;-57
2023/05/04 05:30:59;;;;;;;12.33;8.30;;;;;;;-143.84;89.08;43811.59;5111906;28;20445;-58
2023/05/04 05:33:26;;;;;;;16.37;8.67;;;;;;;-143.84;89.50;43792.56;5110989;28;20429;-59
2023/05/04 05:35:53;;;;;;;15.23;8.40;;;;;;;-143.84;89.89;43771.63;5110934;28;20505;-58
2023/05/04 05:38:22;;;;;;;12.27;7.87;;;;;;;-143.84;90.53;43762.09;5111490;28;20434;-58
2023/05/04 05:40:49;;;;;;;21.37;9.50;;;;;;;-143.84;91.09;43784.94;5111266;28;20934;-58
2023/05/04 05:43:16;;;;;;;19.40;8.50;;;;;;;-143.84;91.52;43783.03;5111036;28;20488;-58
2023/05/04 05:45:43;;;;;;;22.70;11.00;;;;;;;-143.84;91.73;43800.16;5111165;28;20440;-58
2023/05/04 05:48:10;;;;;;;13.63;8.57;;;;;;;-143.84;91.70;43798.25;5111479;28;20512;-58
2023/05/04 05:50:37;;;;;;;16.30;10.23;;;;;;;-143.84;92.17;43824.91;5111400;28;20473;-58
2023/05/04 05:53:04;;;;;;;35.37;14.07;;;;;;;-143.84;92.52;43807.78;5111699;28;20434;-59
2023/05/04 05:55:33;;;;;;;25.13;11.70;;;;;;;-143.84;92.84;43826.81;5111427;28;20938;-58
2023/05/04 05:58:00;;;;;;;19.70;10.93;;;;;;;-143.84;93.14;43847.75;5111467;28;20446;-58
2023/05/04 06:00:27;;;;;;;25.03;9.57;;;;;;;-143.84;93.20;43859.19;5111167;28;20489;-59
2023/05/04 06:02:54;;;;;;;20.27;9.10;;;;;;;-143.84;93.18;43857.28;5111405;28;20505;-59
2023/05/04 06:05:22;;;;;;;21.77;9.03;;;;;;;-143.84;93.54;43882.00;5111236;28;20448;-59
2023/05/04 06:07:49;;;;;;;21.17;8.17;;;;;;;-143.84;93.77;43880.13;5111094;28;20515;-59
2023/05/04 06:10:17;;;;;;;18.50;8.40;;;;;;;-143.84;94.18;43899.16;5111239;28;20439;-58
2023/05/04 06:12:45;;;;;;;21.20;9.00;;;;;;;-143.84;94.35;43908.66;5111245;28;20496;-61
2023/05/04 06:15:13;;;;;;;16.37;7.80;;;;;;;-143.84;94.28;43889.63;5110816;28;20444;-61
2023/05/04 06:17:40;;;;;;;18.87;8.73;;;;;;;-143.84;94.53;43908.66;5111065;28;20956;-61
2023/05/04 06:20:09;;;;;;;17.57;8.57;;;;;;;-143.84;95.02;43918.19;5111297;28;20531;-61
2023/05/04 06:22:36;;;;;;;17.70;8.70;;;;;;;-143.84;94.96;43933.41;5112433;27;20497;-61
2023/05/04 06:25:03;;;;;;;18.77;10.17;;;;;;;-143.84;95.07;43935.31;5111004;28;20489;-61
2023/05/04 06:27:31;;;;;;;16.03;8.70;;;;;;;-143.84;94.71;43918.19;5112036;27;20561;-60
2023/05/04 06:30:00;;;;;;;25.37;10.43;;;;;;;-143.84;95.22;43952.44;5110921;28;20507;-60
2023/05/04 06:32:27;;;;;;;24.27;9.30;;;;;;;-143.84;95.67;43971.47;5110851;28;20847;-60
2023/05/04 06:34:54;;;;;;;13.30;8.50;;;;;;;-143.84;95.74;43981.00;5110858;28;20440;-60
2023/05/04 06:37:22;;;;;;;15.90;9.13;;;;;;;-143.84;95.83;43971.47;5110707;28;20448;-60
2023/05/04 06:39:49;;;;;;;13.07;8.60;;;;;;;-143.84;95.50;43973.38;5109896;28;21006;-60
2023/05/04 06:42:16;;;;;;;17.83;8.40;;;;;;;-143.84;95.46;43971.47;5110910;28;20521;-60
2023/05/04 06:44:43;;;;;;;15.00;8.53;;;;;;;-143.84;95.57;43975.28;5110751;28;20569;-60
2023/05/04 06:47:12;;;;;;;17.93;9.43;;;;;;;-143.84;95.65;43969.59;5110580;28;20530;-60
2023/05/04 06:49:39;;;;;;;14.03;7.67;;;;;;;-143.84;95.33;43958.16;5110297;28;20440;-60
2023/05/04 06:52:06;;;;;;;22.00;9.03;;;;;;;-143.84;95.65;43960.06;5110473;28;20488;-61
2023/05/04 06:54:33;;;;;;;18.47;8.03;;;;;;;-143.84;95.50;43969.59;5110365;28;20851;-60
2023/05/04 06:57:03;;;;;;;16.03;9.13;;;;;;;-143.84;95.75;43973.38;5110349;28;20492;-61
2023/05/04 06:59:30;;;;;;;14.40;8.67;;;;;;;-143.84;95.93;43994.31;5110542;28;20439;-61
2023/05/04 07:01:57;;;;;;;13.00;8.23;;;;;;;-143.84;96.23;43986.72;5110642;28;21171;-60
2023/05/04 07:04:26;;;;;;;14.83;7.77;;;;;;;-143.84;96.44;43994.31;5110511;28;20542;-60
2023/05/04 07:06:53;;;;;;;16.87;7.37;;;;;;;-143.84;96.42;44003.84;5109979;28;20468;-60
2023/05/04 07:09:21;;;;;;;14.00;5.63;;;;;;;-143.84;96.41;43990.53;5110349;28;20521;-60
2023/05/04 07:11:48;;;;;;;18.60;7.00;;;;;;;-143.84;96.90;44022.88;5110070;28;20927;-60
2023/05/04 07:14:15;;;;;;;23.93;7.20;;;;;;;-143.84;96.71;44024.78;5110020;28;20510;-60
2023/05/04 07:16:42;;;;;;;21.57;7.07;;;;;;;-143.84;97.02;44030.50;5109878;28;20462;-60
2023/05/04 07:19:09;;;;;;;17.10;6.83;;;;;;;-143.84;97.42;44034.31;5109879;28;20941;-60
2023/05/04 07:21:38;;;;;;;9.57;5.63;;;;;;;-143.84;97.78;44041.91;5109658;28;20481;-60
2023/05/04 07:24:06;;;;;;;16.23;6.10;;;;;;;-143.84;98.09;44060.94;5109774;28;20440;-59
2023/05/04 07:26:33;;;;;;;13.80;5.80;;;;;;;-143.84;98.30;44089.50;5109679;28;20497;-60
2023/05/04 07:29:01;;;;;;;13.07;6.40;;;;;;;-143.84;98.37;44091.41;5109758;28;20493;-60
2023/05/04 07:31:28;;;;;;;13.90;7.13;;;;;;;-143.84;98.88;44110.44;5109942;28;20993;-61
2023/05/04 07:33:55;;;;;;;11.50;6.60;;;;;;;-143.84;98.67;44116.16;5109683;28;20939;-60
2023/05/04 07:36:23;;;;;;;8.80;6.57;;;;;;;-143.84;98.87;44119.97;5109412;28;20452;-60
2023/05/04 07:38:52;;;;;;;10.87;6.40;;;;;;;-143.84;99.29;44137.09;5109582;28;20444;-60
2023/05/04 07:41:19;;;;;;;12.20;6.03;;;;;;;-143.84;98.50;44114.25;5109566;28;20489;-60
2023/05/04 07:43:46;;;;;;;12.23;5.30;;;;;;;-143.84;97.89;44080.00;5109489;28;20469;-60
2023/05/04 07:46:13;;;;;;;8.37;5.30;;;;;;;-143.84;96.96;44041.91;5109553;28;20928;-60
2023/05/04 07:48:40;;;;;;;10.10;5.23;;;;;;;-143.84;96.04;44007.66;5109356;28;20564;-60
2023/05/04 07:51:13;;;;;;;7.17;5.57;;;;;;;-143.84;96.81;44036.22;5108991;28;20454;-61
2023/05/04 07:53:41;;;;;;;22.00;13.00;;;;;;;-143.84;94.32;43931.50;5109150;28;20457;-60
2023/05/04 07:56:11;;;;;;;24.43;11.40;;;;;;;-143.84;92.51;43872.50;5109146;28;20461;-60
2023/05/04 07:58:38;;;;;;;45.40;27.53;;;;;;;-143.84;90.14;43781.13;5109294;28;20449;-61
2023/05/04 08:01:06;;;;;;;9.17;4.80;;;;;;;-143.84;89.61;43767.81;5109471;28;20913;-57
2023/05/04 08:03:33;;;;;;;11.40;4.57;;;;;;;-143.84;90.21;43743.06;5109838;28;20435;-58
2023/05/04 08:06:00;;;;;;;11.03;5.03;;;;;;;-143.84;87.56;43891.53;5109873;28;20435;-57
2023/05/04 08:08:27;;;;;;;15.93;5.57;;;;;;;-143.84;87.31;43996.22;5109662;28;20522;-57
2023/05/04 08:10:55;;;;;;;11.67;4.70;;;;;;;-143.84;86.94;44034.31;5109346;28;21208;-57
2023/05/04 08:13:23;;;;;;;13.10;4.73;;;;;;;-143.84;86.90;44020.97;5109269;28;20439;-57
2023/05/04 08:15:50;;;;;;;9.43;4.27;;;;;;;-143.84;87.02;43929.59;5109221;28;20958;-57
2023/05/04 08:18:18;;;;;;;7.63;4.13;;;;;;;-143.84;85.59;44321.75;5109135;28;20440;-57
2023/05/04 08:20:45;;;;;;;9.53;4.03;;;;;;;-143.84;84.30;44660.63;5109017;28;20562;-58
2023/05/04 08:23:12;;;;;;;12.47;4.63;;;;;;;-143.84;84.20;44630.19;5108920;28;20439;-58
2023/05/04 08:25:39;;;;;;;9.93;4.50;;;;;;;-143.84;82.12;44892.94;5108936;28;20497;-58
2023/05/04 08:28:06;;;;;;;10.03;4.33;;;;;;;-143.84;82.68;44809.16;5109036;28;20475;-57
2023/05/04 08:30:36;;;;;;;16.63;4.30;;;;;;;-143.84;81.31;44866.28;5109307;28;20493;-57
2023/05/04 08:33:03;;;;;;;15.50;4.43;;;;;;;-143.84;82.00;44816.78;5108949;28;20451;-60
2023/05/04 08:35:30;;;;;;;8.97;4.50;;;;;;;-143.84;80.96;44879.59;5108997;28;20508;-60
2023/05/04 08:37:57;;;;;;;8.50;4.10;;;;;;;-143.84;79.68;44919.59;5108942;28;20443;-60
2023/05/04 08:40:24;;;;;;;10.30;4.13;;;;;;;-143.84;78.34;44993.84;5108816;28;20972;-72
2023/05/04 08:42:52;;;;;;;21.43;4.30;;;;;;;-143.84;79.14;44959.56;5109161;28;20448;-73
2023/05/04 08:45:19;;;;;;;6.60;3.40;;;;;;;-143.84;73.79;45033.84;5109177;28;20510;-73
2023/05/04 08:47:48;;;;;;;12.10;3.70;;;;;;;-143.84;75.20;45020.50;5109267;28;20483;-72
2023/05/04 08:50:15;;;;;;;7.80;3.23;;;;;;;-143.84;73.53;45024.31;5109832;28;20508;-73
2023/05/04 08:52:46;;;;;;;12.90;4.40;;;;;;;-143.84;74.74;45043.34;5108805;28;20436;-73
2023/05/04 08:55:15;;;;;;;9.30;4.20;;;;;;;-143.84;77.08;44969.09;5109213;28;20440;-76
2023/05/04 08:57:44;;;;;;;8.53;4.63;;;;;;;-143.84;76.21;45012.88;5109013;28;20442;-75
2023/05/04 09:00:15;;;;;;;8.07;4.10;;;;;;;-143.84;74.10;45010.97;5108737;28;20448;-75
2023/05/04 09:02:44;;;;;;;8.37;4.10;;;;;;;-143.84;71.93;45050.97;5111387;28;20486;-75
2023/05/04 09:05:13;;;;;;;9.40;4.13;;;;;;;-143.84;73.06;45024.31;5112463;28;20451;-73
2023/05/04 09:07:40;;;;;;;9.57;4.70;;;;;;;-143.84;71.62;45037.66;5112438;28;20485;-73
2023/05/04 09:10:08;;;;;;;7.67;3.80;;;;;;;-143.84;71.89;45052.88;5112510;28;20790;-73
2023/05/04 09:12:36;;;;;;;13.93;4.30;;;;;;;-143.84;72.50;45028.13;5112398;28;20436;-74
2023/05/04 09:15:16;;;;;;;8.80;4.63;;;;;;;-143.84;71.93;45039.53;5113952;28;20514;-77
2023/05/04 09:17:43;;;;;;;6.70;3.93;;;;;;;-143.84;70.63;45049.06;5115216;28;20441;-76
2023/05/04 09:20:13;;;;;;;14.10;4.97;;;;;;;-143.84;71.31;45028.13;5114498;28;20448;-76
2023/05/04 09:22:40;;;;;;;10.07;5.00;;;;;;;-143.84;70.13;45054.78;5114169;28;20945;-76
2023/05/04 09:25:10;;;;;;;10.63;5.43;;;;;;;-143.84;71.21;45018.59;5114033;28;20430;-77
2023/05/04 09:27:37;;;;;;;12.17;5.20;;;;;;;-143.84;71.76;45024.31;5114161;28;20918;-76
2023/05/04 09:30:05;;;;;;;9.40;4.00;;;;;;;-143.84;70.43;45031.94;5113892;28;20451;-79
2023/05/04 09:32:37;;;;;;;8.17;3.73;;;;;;;-143.84;70.65;45026.22;5113663;28;20490;-78
2023/05/04 09:35:05;;;;;;;9.63;4.13;;;;;;;-143.84;68.20;45047.16;5113885;28;20510;-76
2023/05/04 09:37:44;;;;;;;11.63;4.00;;;;;;;-143.84;67.24;45035.75;5113884;28;20450;-76
2023/05/04 09:40:12;;;;;;;8.40;4.17;;;;;;;-143.84;67.90;45031.94;5112721;28;20438;-59
2023/05/04 09:42:40;;;;;;;11.90;5.43;;;;;;;-143.84;66.95;45054.78;5091431;28;20987;-59
2023/05/04 09:45:09;;;;;;;19.73;6.00;;;;;;;-143.84;66.91;45031.94;5091560;28;20439;-59
2023/05/04 09:47:38;;;;;;;13.33;5.60;;;;;;;-143.84;66.50;45062.41;5091223;28;20527;-59
2023/05/04 09:50:15;;;;;;;9.97;4.73;;;;;;;-143.84;68.12;45033.84;5091448;28;21275;-60
2023/05/04 09:52:46;;;;;;;10.40;4.80;;;;;;;-143.84;66.92;45039.53;5091039;28;20442;-59
2023/05/04 09:55:15;;;;;;;8.53;4.47;;;;;;;-143.84;65.57;45045.25;5091376;28;21217;-60
2023/05/04 09:57:43;;;;;;;6.97;3.83;;;;;;;-143.84;65.41;45071.91;5090544;28;20860;-60
2023/05/04 10:00:12;;;;;;;12.50;4.43;;;;;;;-143.84;64.96;45050.97;5090467;28;20441;-60
2023/05/04 10:02:41;;;;;;;8.57;4.63;;;;;;;-143.84;65.62;45041.44;5090818;28;20544;-60
2023/05/04 10:05:09;;;;;;;10.47;4.50;;;;;;;-143.84;65.25;45041.44;5090202;28;20974;-60
2023/05/04 10:07:37;;;;;;;19.40;5.43;;;;;;;-143.84;64.68;45045.25;5090077;28;20485;-61
2023/05/04 10:10:07;;;;;;;53.77;22.23;;;;;;;-143.84;66.77;45073.81;5090639;28;20439;-62
2023/05/04 10:12:35;;;;;;;69.60;38.50;;;;;;;-143.84;65.80;45062.41;5090622;28;20449;-61
2023/05/04 10:15:02;;;;;;;12.43;5.20;;;;;;;-143.84;65.91;45050.97;5090747;28;20444;-60
2023/05/04 10:17:41;;;;;;;10.03;5.17;;;;;;;-143.84;66.37;45037.66;5091172;28;20437;-61
2023/05/04 10:20:26;;;;;;;15.90;5.37;;;;;;;-143.84;65.03;45026.22;5111226;28;20443;-60
2023/05/04 10:23:18;;;;;;;12.07;4.53;;;;;;;-143.84;66.61;45068.13;5090668;28;20525;-60
2023/05/04 10:25:59;;;;;;;16.07;4.87;;;;;;;-143.84;66.35;45062.41;5090361;28;20502;-61
2023/05/04 10:28:43;;;;;;;11.10;4.90;;;;;;;-143.84;68.15;45066.22;5090897;28;20654;-61
2023/05/04 10:31:10;;;;;;;13.07;4.97;;;;;;;-143.84;67.26;45043.34;5090472;28;20435;-61
2023/05/04 10:33:41;;;;;;;14.40;5.00;;;;;;;-143.84;65.42;45068.13;5090728;28;20459;-61
2023/05/04 10:36:09;;;;;;;12.20;5.03;;;;;;;-143.84;65.76;45030.03;5090561;28;20498;-60
2023/05/04 10:38:37;;;;;;;16.90;5.93;;;;;;;-143.84;67.41;45071.91;5090555;28;20494;-61
2023/05/04 10:41:15;;;;;;;14.10;5.27;;;;;;;-143.84;68.89;45060.50;5090267;28;20467;-61
2023/05/04 10:43:47;;;;;;;12.83;5.67;;;;;;;-143.84;68.20;45049.06;5090156;28;21152;-61
2023/05/04 10:46:21;;;;;;;17.40;5.40;;;;;;;-143.84;67.30;45050.97;5090100;28;20459;-61
2023/05/04 10:48:49;;;;;;;13.60;6.23;;;;;;;-143.84;68.92;45050.97;5089710;28;20553;-61
2023/05/04 10:51:20;;;;;;;18.77;6.00;;;;;;;-143.84;70.26;45047.16;5090260;28;20506;-60
2023/05/04 10:53:47;;;;;;;15.40;5.53;;;;;;;-143.84;68.32;45052.88;5089642;28;20796;-61
2023/05/04 10:56:23;;;;;;;12.47;5.90;;;;;;;-143.84;69.48;45043.34;5089939;28;20440;-61
2023/05/04 10:58:50;;;;;;;14.63;6.47;;;;;;;-143.84;69.94;45075.72;5090078;28;20436;-61
2023/05/04 11:01:17;;;;;;;14.03;7.90;;;;;;;-143.84;75.40;45033.84;5090022;28;20432;-61
2023/05/04 11:03:45;;;;;;;11.00;6.20;;;;;;;-143.84;71.94;45062.41;5103730;28;20469;-61
2023/05/04 11:06:16;;;;;;;17.30;5.70;;;;;;;-143.84;68.92;45035.75;5110207;28;21010;-61
2023/05/04 11:08:45;;;;;;;14.20;6.63;;;;;;;-143.84;68.43;45045.25;5110230;28;20567;-61
2023/05/04 11:11:12;;;;;;;14.80;6.70;;;;;;;-143.84;69.54;45030.03;5110158;28;20857;-61
2023/05/04 11:13:46;;;;;;;16.17;7.57;;;;;;;-143.84;71.41;45064.31;5110212;28;20807;-61